createdAt,value
2022-10-22T00:01:24.662Z,5.30
2022-10-22T00:03:46.831Z,5.17
2022-10-22T00:06:09.166Z,5.13
2022-10-22T00:08:31.240Z,5.30
2022-10-22T00:10:53.075Z,5.37
2022-10-22T00:13:15.050Z,4.43
2022-10-22T00:15:37.055Z,4.87
2022-10-22T00:17:59.079Z,4.80
2022-10-22T00:20:20.976Z,5.13
2022-10-22T00:22:42.878Z,4.83
2022-10-22T00:25:05.048Z,5.13
2022-10-22T00:27:26.819Z,5.40
2022-10-22T00:29:48.674Z,5.27
2022-10-22T00:32:10.603Z,6.00
2022-10-22T00:34:33.255Z,5.40
2022-10-22T00:36:55.191Z,5.73
2022-10-22T00:39:21.006Z,5.87
2022-10-22T00:41:45.070Z,6.27
2022-10-22T00:44:07.119Z,5.82
2022-10-22T00:46:31.014Z,6.77
2022-10-22T00:48:56.387Z,5.72
2022-10-22T00:51:21.801Z,6.30
2022-10-22T00:53:56.911Z,6.77
2022-10-22T00:56:20.230Z,6.32
2022-10-22T00:58:49.257Z,5.93
2022-10-22T01:01:18.233Z,6.37
2022-10-22T01:03:40.030Z,6.00
2022-10-22T01:06:05.772Z,6.33
2022-10-22T01:08:56.981Z,5.90
2022-10-22T01:11:34.575Z,5.70
2022-10-22T01:14:44.442Z,6.20
2022-10-22T01:17:31.743Z,5.93
2022-10-22T01:20:32.556Z,7.43
2022-10-22T01:23:28.284Z,6.70
2022-10-22T01:26:37.320Z,6.13
2022-10-22T01:29:11.178Z,6.43
2022-10-22T01:31:40.176Z,5.70
2022-10-22T01:34:04.369Z,6.33
2022-10-22T01:36:29.999Z,6.68
2022-10-22T01:38:53.379Z,6.40
2022-10-22T01:41:15.717Z,5.80
2022-10-22T01:43:37.534Z,6.10
2022-10-22T01:46:03.620Z,5.90
2022-10-22T01:48:56.798Z,5.87
2022-10-22T01:51:43.712Z,6.00
2022-10-22T01:54:55.049Z,5.87
2022-10-22T01:58:19.688Z,5.93
2022-10-22T02:00:57.993Z,6.40
2022-10-22T02:03:34.325Z,6.33
2022-10-22T02:06:06.638Z,6.60
2022-10-22T02:08:33.828Z,6.97
2022-10-22T02:10:58.660Z,6.80
2022-10-22T02:13:31.494Z,9.90
2022-10-22T02:15:56.981Z,9.30
2022-10-22T02:18:26.055Z,8.93
2022-10-22T02:20:49.086Z,7.40
2022-10-22T02:23:12.244Z,7.47
2022-10-22T02:25:40.400Z,8.10
2022-10-22T02:28:27.253Z,7.97
2022-10-22T02:30:55.253Z,8.80
2022-10-22T02:33:30.722Z,7.90
2022-10-22T02:35:55.412Z,7.80
2022-10-22T02:38:19.550Z,7.47
2022-10-22T02:40:42.368Z,7.72
2022-10-22T02:43:06.176Z,6.97
2022-10-22T02:45:28.017Z,7.38
2022-10-22T02:47:50.114Z,7.60
2022-10-22T02:50:11.976Z,7.50
2022-10-22T02:52:33.813Z,7.17
2022-10-22T02:54:55.584Z,7.50
2022-10-22T02:57:17.479Z,7.10
2022-10-22T02:59:39.267Z,6.50
2022-10-22T03:02:01.099Z,7.10
2022-10-22T03:04:22.890Z,6.53
2022-10-22T03:06:44.891Z,6.53
2022-10-22T03:09:06.747Z,6.93
2022-10-22T03:11:28.689Z,6.80
2022-10-22T03:13:50.428Z,7.30
2022-10-22T03:16:12.266Z,6.60
2022-10-22T03:18:34.168Z,6.43
2022-10-22T03:21:39.046Z,6.63
2022-10-22T03:24:08.405Z,6.07
2022-10-22T03:26:30.407Z,6.97
2022-10-22T03:28:52.375Z,6.50
2022-10-22T03:31:14.945Z,6.40
2022-10-22T03:33:36.718Z,6.13
2022-10-22T03:35:59.501Z,6.30
2022-10-22T03:38:21.447Z,6.33
2022-10-22T03:40:46.131Z,6.40
2022-10-22T03:43:08.383Z,6.17
2022-10-22T03:45:30.180Z,6.03
2022-10-22T03:47:51.971Z,6.57
2022-10-22T03:50:13.723Z,6.53
2022-10-22T03:52:40.512Z,6.80
2022-10-22T03:55:02.265Z,6.30
2022-10-22T03:57:24.085Z,6.20
2022-10-22T03:59:47.702Z,6.43
2022-10-22T04:02:11.278Z,6.00
2022-10-22T04:04:33.437Z,6.80
2022-10-22T04:06:55.341Z,7.07
2022-10-22T04:09:17.149Z,6.27
2022-10-22T04:11:38.966Z,6.73
2022-10-22T04:14:00.791Z,6.40
2022-10-22T04:16:26.161Z,6.53
2022-10-22T04:18:51.231Z,6.03
2022-10-22T04:21:16.318Z,5.97
2022-10-22T04:23:38.764Z,6.17
2022-10-22T04:26:03.904Z,6.00
2022-10-22T04:28:26.185Z,6.20
2022-10-22T04:30:47.949Z,6.13
2022-10-22T04:33:09.726Z,5.70
2022-10-22T04:35:31.523Z,6.17
2022-10-22T04:37:54.984Z,6.10
2022-10-22T04:40:16.893Z,6.10
2022-10-22T04:42:38.683Z,6.20
2022-10-22T04:45:00.540Z,6.13
2022-10-22T04:47:22.448Z,6.70
2022-10-22T04:49:44.186Z,7.03
2022-10-22T04:52:05.936Z,6.47
2022-10-22T04:54:30.551Z,6.20
2022-10-22T04:56:54.937Z,6.73
2022-10-22T04:59:16.771Z,7.00
2022-10-22T05:01:43.407Z,6.33
2022-10-22T05:04:07.555Z,6.57
2022-10-22T05:06:32.320Z,6.22
2022-10-22T05:08:58.322Z,6.30
2022-10-22T05:11:24.531Z,6.60
2022-10-22T05:13:47.530Z,7.50
2022-10-22T05:16:11.198Z,6.90
2022-10-22T05:18:42.918Z,7.70
2022-10-22T05:21:09.611Z,6.07
2022-10-22T05:23:31.700Z,7.17
2022-10-22T05:25:53.464Z,6.70
2022-10-22T05:28:15.236Z,7.00
2022-10-22T05:30:37.020Z,6.40
2022-10-22T05:32:58.850Z,6.30
2022-10-22T05:35:20.610Z,6.93
2022-10-22T05:37:42.786Z,6.63
2022-10-22T05:40:19.130Z,6.40
2022-10-22T05:42:47.891Z,6.07
2022-10-22T05:45:10.065Z,6.60
2022-10-22T05:47:31.935Z,6.40
2022-10-22T05:49:53.699Z,5.90
2022-10-22T05:52:15.509Z,6.30
2022-10-22T05:54:37.299Z,6.00
2022-10-22T05:56:59.225Z,6.30
2022-10-22T05:59:21.140Z,5.80
2022-10-22T06:01:43.100Z,6.63
2022-10-22T06:04:10.009Z,6.17
2022-10-22T06:06:45.757Z,6.83
2022-10-22T06:09:20.179Z,6.67
2022-10-22T06:11:42.111Z,6.72
2022-10-22T06:14:04.906Z,6.70
2022-10-22T06:16:30.064Z,6.67
2022-10-22T06:18:51.981Z,6.40
2022-10-22T06:21:16.247Z,7.13
2022-10-22T06:23:39.476Z,8.45
2022-10-22T06:26:02.723Z,8.03
2022-10-22T06:30:51.364Z,9.63
2022-10-22T06:33:13.188Z,8.63
2022-10-22T06:35:35.459Z,7.60
2022-10-22T06:37:57.246Z,8.07
2022-10-22T06:40:19.383Z,7.57
2022-10-22T06:42:41.565Z,6.93
2022-10-22T06:45:04.098Z,6.27
2022-10-22T06:47:26.007Z,7.13
2022-10-22T06:49:49.933Z,7.30
2022-10-22T06:52:12.947Z,7.55
2022-10-22T06:54:34.893Z,7.17
2022-10-22T06:56:56.764Z,7.83
2022-10-22T06:59:18.814Z,6.80
2022-10-22T07:01:40.817Z,7.63
2022-10-22T07:04:03.240Z,6.77
2022-10-22T07:06:27.382Z,8.97
2022-10-22T07:08:49.753Z,6.47
2022-10-22T07:11:18.779Z,6.87
2022-10-22T07:13:41.823Z,5.77
2022-10-22T07:16:05.793Z,6.10
2022-10-22T07:18:27.881Z,6.45
2022-10-22T07:20:50.728Z,7.20
2022-10-22T07:23:12.710Z,6.00
2022-10-22T07:25:34.605Z,5.87
2022-10-22T07:27:56.565Z,5.30
2022-10-22T07:30:18.584Z,5.57
2022-10-22T07:32:40.632Z,6.10
2022-10-22T07:35:02.527Z,5.13
2022-10-22T07:37:24.363Z,5.03
2022-10-22T07:39:46.737Z,4.97
2022-10-22T07:42:08.955Z,4.90
2022-10-22T07:44:30.744Z,4.50
2022-10-22T07:46:52.652Z,4.40
2022-10-22T07:49:14.490Z,4.80
2022-10-22T07:51:36.397Z,4.10
2022-10-22T07:53:58.289Z,4.47
2022-10-22T07:56:20.201Z,4.90
2022-10-22T07:58:42.399Z,3.93
2022-10-22T08:01:05.928Z,4.50
2022-10-22T08:03:29.777Z,4.53
2022-10-22T08:05:52.135Z,4.90
2022-10-22T08:08:16.209Z,4.33
2022-10-22T08:10:38.564Z,4.93
2022-10-22T08:13:00.662Z,4.53
2022-10-22T08:15:23.472Z,4.80
2022-10-22T08:17:45.265Z,5.23
2022-10-22T08:20:07.981Z,4.87
2022-10-22T08:22:29.851Z,4.70
2022-10-22T08:24:51.614Z,3.80
2022-10-22T08:27:13.514Z,3.93
2022-10-22T08:29:35.399Z,3.83
2022-10-22T08:31:57.476Z,3.70
2022-10-22T08:34:19.763Z,3.60
2022-10-22T08:36:41.816Z,3.60
2022-10-22T08:39:03.638Z,3.63
2022-10-22T08:41:26.420Z,3.40
2022-10-22T08:44:15.545Z,3.33
2022-10-22T08:46:52.644Z,3.23
2022-10-22T08:49:24.608Z,3.60
2022-10-22T08:51:46.755Z,3.20
2022-10-22T08:54:32.005Z,2.93
2022-10-22T08:57:09.804Z,3.25
2022-10-22T08:59:56.462Z,3.20
2022-10-22T09:02:56.709Z,3.00
2022-10-22T09:05:33.412Z,3.23
2022-10-22T09:07:58.071Z,2.97
2022-10-22T09:10:27.167Z,2.60
2022-10-22T09:12:49.387Z,3.10
2022-10-22T09:15:16.905Z,2.83
2022-10-22T09:18:07.712Z,2.80
2022-10-22T09:20:56.940Z,2.50
2022-10-22T09:23:30.532Z,2.70
2022-10-22T09:25:53.120Z,3.23
2022-10-22T09:28:15.155Z,2.73
2022-10-22T09:30:40.035Z,2.37
2022-10-22T09:33:19.187Z,2.50
2022-10-22T09:36:03.434Z,2.73
2022-10-22T09:38:30.392Z,2.53
2022-10-22T09:40:55.806Z,3.20
2022-10-22T09:43:18.361Z,2.83
2022-10-22T09:45:41.529Z,3.47
2022-10-22T09:48:28.471Z,2.73
2022-10-22T09:51:02.088Z,2.57
2022-10-22T09:53:30.768Z,3.00
2022-10-22T09:55:57.542Z,2.70
2022-10-22T09:58:19.889Z,2.83
2022-10-22T10:00:51.565Z,2.97
2022-10-22T10:03:24.133Z,3.00
2022-10-22T10:05:54.986Z,2.80
2022-10-22T10:08:18.693Z,2.43
2022-10-22T10:11:02.095Z,2.77
2022-10-22T10:13:36.058Z,2.57
2022-10-22T10:16:15.827Z,2.60
2022-10-22T10:19:07.131Z,2.67
2022-10-22T10:21:55.359Z,2.87
2022-10-22T10:24:54.062Z,2.57
2022-10-22T10:27:40.616Z,2.80
2022-10-22T10:30:26.070Z,2.60
2022-10-22T10:33:09.010Z,2.57
2022-10-22T10:35:55.214Z,2.73
2022-10-22T10:38:51.836Z,2.40
2022-10-22T10:41:23.614Z,2.93
2022-10-22T10:44:13.608Z,2.20
2022-10-22T10:47:13.943Z,2.30
2022-10-22T10:49:36.937Z,2.60
2022-10-22T10:52:17.488Z,2.70
2022-10-22T10:54:45.294Z,2.57
2022-10-22T10:57:39.399Z,2.80
2022-10-22T11:00:11.883Z,2.70
2022-10-22T11:03:38.567Z,3.10
2022-10-22T11:06:07.714Z,2.67
2022-10-22T11:08:38.934Z,2.80
2022-10-22T11:11:23.147Z,2.70
2022-10-22T11:14:10.863Z,3.00
2022-10-22T11:17:01.855Z,3.10
2022-10-22T11:19:46.516Z,2.93
2022-10-22T11:22:26.981Z,3.30
2022-10-22T11:25:13.554Z,2.77
2022-10-22T11:28:09.120Z,2.47
2022-10-22T11:30:37.030Z,2.87
2022-10-22T11:33:05.797Z,3.17
2022-10-22T11:35:34.062Z,2.70
2022-10-22T11:37:57.921Z,2.70
2022-10-22T11:40:36.084Z,2.90
2022-10-22T11:43:05.507Z,2.90
2022-10-22T11:45:34.195Z,3.10
2022-10-22T11:48:10.048Z,2.77
2022-10-22T11:51:00.740Z,2.80
2022-10-22T11:53:25.600Z,3.22
2022-10-22T11:55:51.922Z,2.95
2022-10-22T11:58:45.038Z,2.75
2022-10-22T12:01:09.985Z,2.78
2022-10-22T12:03:31.714Z,2.70
2022-10-22T12:06:28.144Z,2.97
2022-10-22T12:08:50.091Z,2.70
2022-10-22T12:11:11.935Z,2.85
2022-10-22T12:13:53.550Z,2.80
2022-10-22T12:16:23.570Z,3.28
2022-10-22T12:19:05.111Z,2.42
2022-10-22T12:21:27.105Z,3.00
2022-10-22T12:23:51.171Z,3.00
2022-10-22T12:26:31.825Z,2.90
2022-10-22T12:29:00.045Z,3.27
2022-10-22T12:31:21.875Z,3.10
2022-10-22T12:33:44.204Z,3.30
2022-10-22T12:36:06.495Z,2.90
2022-10-22T12:38:28.300Z,2.42
2022-10-22T12:40:55.397Z,3.10
2022-10-22T12:43:25.593Z,2.67
2022-10-22T12:45:50.523Z,2.95
2022-10-22T12:48:27.010Z,3.70
2022-10-22T12:50:54.439Z,3.13
2022-10-22T12:53:24.060Z,3.20
2022-10-22T12:55:49.852Z,3.08
2022-10-22T12:58:20.140Z,3.20
2022-10-22T13:00:41.976Z,3.40
2022-10-22T13:03:07.268Z,3.17
2022-10-22T13:05:39.118Z,3.30
2022-10-22T13:08:16.922Z,3.07
2022-10-22T13:10:42.202Z,3.00
2022-10-22T13:13:06.990Z,3.43
2022-10-22T13:15:31.521Z,2.83
2022-10-22T13:21:03.155Z,2.70
2022-10-22T13:23:28.220Z,2.80
2022-10-22T13:26:16.743Z,2.15
2022-10-22T13:28:38.974Z,2.17
2022-10-22T13:31:09.989Z,2.10
2022-10-22T13:33:42.504Z,2.50
2022-10-22T13:36:05.679Z,1.92
2022-10-22T13:38:28.640Z,2.08
2022-10-22T13:40:50.974Z,2.20
2022-10-22T13:43:12.826Z,2.50
2022-10-22T13:45:34.795Z,2.33
2022-10-22T13:47:57.108Z,2.38
2022-10-22T13:50:21.005Z,2.05
2022-10-22T13:52:59.093Z,2.13
2022-10-22T13:55:25.641Z,2.42
2022-10-22T13:57:49.556Z,2.30
2022-10-22T14:00:19.151Z,2.50
2022-10-22T14:02:41.813Z,2.00
2022-10-22T14:05:08.582Z,1.98
2022-10-22T14:07:30.469Z,1.88
2022-10-22T14:09:52.265Z,2.03
2022-10-22T14:12:17.184Z,1.75
2022-10-22T14:14:38.976Z,2.10
2022-10-22T14:17:01.534Z,2.05
2022-10-22T14:19:23.525Z,1.90
2022-10-22T14:21:45.598Z,2.10
2022-10-22T14:24:13.386Z,1.70
2022-10-22T14:26:35.658Z,2.33
2022-10-22T14:29:13.903Z,2.25
2022-10-22T14:31:42.146Z,1.92
2022-10-22T14:34:04.315Z,1.70
2022-10-22T14:36:26.359Z,1.67
2022-10-22T14:38:49.102Z,1.70
2022-10-22T14:41:22.000Z,2.10
2022-10-22T14:43:43.776Z,1.90
2022-10-22T14:46:05.686Z,2.00
2022-10-22T14:48:28.107Z,1.80
2022-10-22T14:50:50.483Z,1.95
2022-10-22T14:53:14.272Z,1.90
2022-10-22T14:55:36.711Z,1.70
2022-10-22T14:57:58.475Z,1.90
2022-10-22T15:00:21.890Z,2.10
2022-10-22T15:02:44.303Z,1.98
2022-10-22T15:05:07.399Z,2.35
2022-10-22T15:07:29.323Z,2.15
2022-10-22T15:09:51.345Z,1.63
2022-10-22T15:12:13.253Z,2.10
2022-10-22T15:14:35.088Z,2.22
2022-10-22T15:16:57.843Z,1.80
2022-10-22T15:19:19.667Z,2.08
2022-10-22T15:24:04.783Z,2.15
2022-10-22T15:26:27.837Z,1.95
2022-10-22T15:28:49.577Z,2.28
2022-10-22T15:31:14.687Z,2.40
2022-10-22T15:33:36.504Z,1.80
2022-10-22T15:35:58.631Z,2.35
2022-10-22T15:38:20.734Z,2.93
2022-10-22T15:40:42.778Z,2.22
2022-10-22T15:43:04.696Z,2.03
2022-10-22T15:45:26.639Z,2.90
2022-10-22T15:47:49.182Z,2.60
2022-10-22T15:50:11.660Z,2.20
2022-10-22T15:52:33.495Z,2.20
2022-10-22T15:54:55.747Z,2.63
2022-10-22T15:57:17.656Z,1.90
2022-10-22T15:59:39.662Z,3.10
2022-10-22T16:02:01.443Z,2.33
2022-10-22T16:04:23.339Z,2.00
2022-10-22T16:06:49.593Z,2.00
2022-10-22T16:09:19.924Z,2.73
2022-10-22T16:11:42.299Z,2.93
2022-10-22T16:14:05.833Z,2.87
2022-10-22T16:16:34.265Z,2.80
2022-10-22T16:18:56.392Z,2.90
2022-10-22T16:21:20.853Z,2.90
2022-10-22T16:26:05.108Z,2.77
2022-10-22T16:28:26.934Z,3.03
2022-10-22T16:30:48.827Z,3.20
2022-10-22T16:33:11.741Z,3.10
2022-10-22T16:35:33.748Z,3.17
2022-10-22T16:37:55.693Z,4.07
2022-10-22T16:40:17.650Z,3.60
2022-10-22T16:42:39.517Z,4.60
2022-10-22T16:45:01.466Z,5.80
2022-10-22T16:47:23.275Z,6.03
2022-10-22T16:49:45.119Z,7.90
2022-10-22T16:52:07.075Z,6.63
2022-10-22T16:54:29.119Z,6.50
2022-10-22T16:56:51.191Z,6.53
2022-10-22T16:59:12.952Z,6.33
2022-10-22T17:01:39.453Z,5.73
2022-10-22T17:04:02.505Z,5.20
2022-10-22T17:06:25.108Z,5.40
2022-10-22T17:08:47.832Z,5.10
2022-10-22T17:11:17.048Z,5.27
2022-10-22T17:13:41.788Z,5.20
2022-10-22T17:16:11.118Z,5.40
2022-10-22T17:18:35.747Z,5.60
2022-10-22T17:20:58.589Z,5.10
2022-10-22T17:23:20.476Z,5.53
2022-10-22T17:25:44.659Z,5.23
2022-10-22T17:28:06.568Z,5.97
2022-10-22T17:30:28.852Z,5.40
2022-10-22T17:32:50.628Z,5.53
2022-10-22T17:35:16.669Z,5.53
2022-10-22T17:37:38.998Z,5.37
2022-10-22T17:40:01.997Z,5.50
2022-10-22T17:42:23.901Z,5.33
2022-10-22T17:44:45.799Z,5.47
2022-10-22T17:47:07.593Z,5.10
2022-10-22T17:49:29.427Z,5.13
2022-10-22T17:51:51.765Z,5.20
2022-10-22T17:54:14.715Z,5.03
2022-10-22T17:56:37.557Z,4.77
2022-10-22T17:59:02.299Z,4.53
2022-10-22T18:01:29.022Z,5.00
2022-10-22T18:03:53.193Z,4.73
2022-10-22T18:06:15.599Z,5.68
2022-10-22T18:08:37.670Z,4.90
2022-10-22T18:11:00.412Z,4.97
2022-10-22T18:13:22.217Z,4.93
2022-10-22T18:15:43.994Z,5.10
2022-10-22T18:18:06.025Z,5.37
2022-10-22T18:20:27.855Z,4.90
2022-10-22T18:22:49.634Z,4.77
2022-10-22T18:25:12.292Z,4.90
2022-10-22T18:27:34.236Z,4.60
2022-10-22T18:29:55.986Z,4.90
2022-10-22T18:32:17.822Z,5.87
2022-10-22T18:34:39.834Z,6.37
2022-10-22T18:37:01.745Z,5.53
2022-10-22T18:39:24.217Z,5.80
2022-10-22T18:41:46.215Z,6.20
2022-10-22T18:44:08.404Z,6.43
2022-10-22T18:46:34.878Z,5.33
2022-10-22T18:48:58.654Z,5.50
2022-10-22T18:51:20.828Z,4.43
2022-10-22T18:53:53.589Z,4.47
2022-10-22T18:56:25.264Z,5.00
2022-10-22T18:58:49.503Z,5.33
2022-10-22T19:01:26.153Z,5.50
2022-10-22T19:03:49.090Z,5.10
2022-10-22T19:06:12.605Z,6.27
2022-10-22T19:08:36.633Z,6.07
2022-10-22T19:10:58.694Z,6.13
2022-10-22T19:13:23.213Z,5.83
2022-10-22T19:18:07.279Z,5.70
2022-10-22T19:20:29.197Z,5.77
2022-10-22T19:22:51.041Z,5.80
2022-10-22T19:25:13.037Z,6.13
2022-10-22T19:27:36.526Z,8.50
2022-10-22T19:29:58.323Z,8.97
2022-10-22T19:32:20.279Z,8.43
2022-10-22T19:34:43.203Z,6.87
2022-10-22T19:37:05.006Z,8.00
2022-10-22T19:39:26.835Z,7.90
2022-10-22T19:41:48.659Z,8.20
2022-10-22T19:44:11.027Z,8.10
2022-10-22T19:46:33.114Z,7.73
2022-10-22T19:48:57.328Z,7.67
2022-10-22T19:51:22.664Z,6.82
2022-10-22T19:53:45.170Z,6.33
2022-10-22T19:56:11.657Z,6.80
2022-10-22T19:58:34.578Z,7.10
2022-10-22T20:00:56.516Z,6.50
2022-10-22T20:03:20.111Z,7.60
2022-10-22T20:05:42.794Z,7.63
2022-10-22T20:08:04.931Z,6.63
2022-10-22T20:10:26.856Z,6.63
2022-10-22T20:12:48.676Z,7.70
2022-10-22T20:15:10.552Z,7.37
2022-10-22T20:17:32.332Z,6.77
2022-10-22T20:19:54.079Z,8.60
2022-10-22T20:22:17.993Z,8.37
2022-10-22T20:24:40.977Z,8.17
2022-10-22T20:27:02.851Z,7.93
2022-10-22T20:29:24.765Z,7.80
2022-10-22T20:31:47.729Z,9.97
2022-10-22T20:34:09.747Z,9.40
2022-10-22T20:36:32.570Z,8.67
2022-10-22T20:39:06.157Z,9.47
2022-10-22T20:41:28.277Z,9.63
2022-10-22T20:43:52.087Z,9.77
2022-10-22T20:46:31.914Z,10.57
2022-10-22T20:48:59.675Z,9.93
2022-10-22T20:51:21.995Z,10.00
2022-10-22T20:53:43.820Z,9.40
2022-10-22T20:56:06.695Z,10.10
2022-10-22T20:58:30.670Z,9.87
2022-10-22T21:00:52.742Z,9.82
2022-10-22T21:03:15.324Z,9.70
2022-10-22T21:05:37.425Z,11.63
2022-10-22T21:07:59.249Z,9.37
2022-10-22T21:10:21.051Z,10.57
2022-10-22T21:12:44.036Z,10.17
2022-10-22T21:15:10.238Z,10.27
2022-10-22T21:17:34.362Z,11.40
2022-10-22T21:19:56.125Z,12.27
2022-10-22T21:22:17.954Z,11.17
2022-10-22T21:24:39.826Z,12.17
2022-10-22T21:27:03.939Z,11.83
2022-10-22T21:29:25.770Z,9.82
2022-10-22T21:31:48.083Z,9.73
2022-10-22T21:34:09.877Z,9.37
2022-10-22T21:36:31.743Z,10.43
2022-10-22T21:38:55.087Z,9.57
2022-10-22T21:41:19.100Z,9.97
2022-10-22T21:43:43.375Z,9.23
2022-10-22T21:46:15.866Z,9.43
2022-10-22T21:48:40.324Z,9.47
2022-10-22T21:51:11.831Z,9.05
2022-10-22T21:53:34.023Z,8.93
2022-10-22T21:55:55.771Z,9.47
2022-10-22T21:58:17.561Z,9.80
2022-10-22T22:00:39.382Z,10.50
2022-10-22T22:03:01.689Z,9.53
2022-10-22T22:05:23.703Z,8.50
2022-10-22T22:07:45.569Z,8.57
2022-10-22T22:10:08.141Z,9.33
2022-10-22T22:12:29.969Z,9.50
2022-10-22T22:14:51.771Z,9.67
2022-10-22T22:17:15.413Z,7.67
2022-10-22T22:19:38.916Z,8.60
2022-10-22T22:22:00.654Z,8.80
2022-10-22T22:24:22.438Z,8.93
2022-10-22T22:26:44.190Z,9.07
2022-10-22T22:29:06.090Z,8.97
2022-10-22T22:31:32.273Z,8.53
2022-10-22T22:34:21.492Z,8.80
2022-10-22T22:36:47.204Z,9.10
2022-10-22T22:39:17.219Z,9.00
2022-10-22T22:41:39.791Z,9.23
2022-10-22T22:44:01.922Z,10.73
2022-10-22T22:46:23.916Z,9.63
2022-10-22T22:48:49.654Z,10.47
2022-10-22T22:51:11.612Z,9.63
2022-10-22T22:53:35.244Z,9.33
2022-10-22T22:56:20.772Z,9.80
2022-10-22T22:58:44.429Z,9.97
2022-10-22T23:01:28.953Z,9.63
2022-10-22T23:04:12.902Z,9.65
2022-10-22T23:06:37.661Z,9.97
2022-10-22T23:09:00.300Z,9.93
2022-10-22T23:11:25.121Z,9.60
2022-10-22T23:13:48.274Z,9.37
2022-10-22T23:16:18.541Z,9.07
2022-10-22T23:18:41.096Z,9.20
2022-10-22T23:21:11.415Z,9.83
2022-10-22T23:23:36.328Z,9.33
2022-10-22T23:28:24.956Z,9.80
2022-10-22T23:30:46.765Z,8.87
2022-10-22T23:33:08.776Z,8.87
2022-10-22T23:35:30.567Z,8.97
2022-10-22T23:37:52.367Z,8.87
2022-10-22T23:40:14.288Z,9.07
2022-10-22T23:42:36.180Z,9.77
2022-10-22T23:44:58.231Z,9.47
2022-10-22T23:47:20.090Z,9.57
2022-10-22T23:49:41.809Z,9.60
2022-10-22T23:52:03.728Z,9.53
2022-10-22T23:54:25.616Z,9.77
2022-10-22T23:56:47.664Z,10.10
2022-10-22T23:59:09.654Z,10.17
